SVA1643 OEAB-OEJN
Flight info
| Callsign | SVA1643 |
|---|---|
| Flight time | 0h 49m |
| Altitude | 26000 |
| Route | ABH B544 BOSUT |
| Aircraft | A320/M-SDE3FGHIRWY/LB1 |
Departure
| Time | 2026-05-06 01:50 |
|---|---|
| Airport | Abha International Airport (OEAB) |
Arrival
| Time | 2026-05-06 02:40 |
|---|---|
| Airport | King Abdulaziz International Airport (OEJN) |
| Time | Latitude | Longitude | Altitude | Speed | Heading |
|---|---|---|---|---|---|
| 2026-05-06 01:47 | 18.24035 | 42.65319 | 6858 ft | 28 kts | 308° |
| 2026-05-06 01:47 | 18.24161 | 42.65156 | 6853 ft | 30 kts | 309° |
| 2026-05-06 01:47 | 18.24295 | 42.64984 | 6850 ft | 31 kts | 310° |
| 2026-05-06 01:48 | 18.24437 | 42.64804 | 6840 ft | 34 kts | 309° |
| 2026-05-06 01:48 | 18.24591 | 42.64604 | 6835 ft | 35 kts | 309° |
| 2026-05-06 01:48 | 18.24727 | 42.64431 | 6856 ft | 27 kts | 310° |
| 2026-05-06 01:48 | 18.24866 | 42.64379 | 6863 ft | 19 kts | 354° |
| 2026-05-06 01:49 | 18.24965 | 42.64445 | 6860 ft | 18 kts | 89° |
| 2026-05-06 01:49 | 18.24936 | 42.64499 | 6860 ft | 1 kts | 130° |
| 2026-05-06 01:49 | 18.24824 | 42.64641 | 6863 ft | 61 kts | 129° |
| 2026-05-06 01:49 | 18.24417 | 42.65169 | 6872 ft | 123 kts | 129° |
| 2026-05-06 01:50 | 18.23760 | 42.66013 | 6870 ft | 173 kts | 129° |
| 2026-05-06 01:50 | 18.22970 | 42.67045 | 7450 ft | 176 kts | 128° |
| 2026-05-06 01:50 | 18.22203 | 42.68092 | 8040 ft | 191 kts | 128° |
| 2026-05-06 01:50 | 18.21351 | 42.69269 | 8408 ft | 213 kts | 128° |
| 2026-05-06 01:51 | 18.20273 | 42.70389 | 8802 ft | 221 kts | 152° |
| 2026-05-06 01:51 | 18.18821 | 42.70742 | 9368 ft | 220 kts | 185° |
| 2026-05-06 01:51 | 18.17409 | 42.70185 | 9893 ft | 221 kts | 219° |
| 2026-05-06 01:51 | 18.16476 | 42.68913 | 10409 ft | 222 kts | 242° |
| 2026-05-06 01:52 | 18.15955 | 42.67326 | 10693 ft | 241 kts | 267° |
| 2026-05-06 01:52 | 18.16240 | 42.65576 | 11246 ft | 249 kts | 294° |
| 2026-05-06 01:52 | 18.17232 | 42.64073 | 11887 ft | 254 kts | 311° |
| 2026-05-06 01:52 | 18.18408 | 42.62675 | 12553 ft | 257 kts | 311° |
| 2026-05-06 01:53 | 18.19605 | 42.61259 | 13147 ft | 264 kts | 311° |
| 2026-05-06 01:53 | 18.20859 | 42.59774 | 13319 ft | 287 kts | 311° |
| 2026-05-06 01:53 | 18.22257 | 42.58119 | 13457 ft | 310 kts | 311° |
| 2026-05-06 01:53 | 18.23716 | 42.56387 | 13584 ft | 332 kts | 311° |
| 2026-05-06 01:54 | 18.25293 | 42.54511 | 13712 ft | 352 kts | 311° |
| 2026-05-06 01:54 | 18.26953 | 42.52535 | 13839 ft | 369 kts | 311° |
| 2026-05-06 01:54 | 18.28690 | 42.50469 | 13967 ft | 385 kts | 311° |
| 2026-05-06 01:54 | 18.30487 | 42.48331 | 14261 ft | 394 kts | 311° |
| 2026-05-06 01:55 | 18.32311 | 42.46158 | 14696 ft | 398 kts | 311° |
| 2026-05-06 01:55 | 18.34149 | 42.43966 | 15131 ft | 401 kts | 311° |
| 2026-05-06 01:55 | 18.36000 | 42.41756 | 15551 ft | 404 kts | 311° |
| 2026-05-06 01:55 | 18.37835 | 42.39564 | 15947 ft | 407 kts | 311° |
| 2026-05-06 01:56 | 18.39713 | 42.37323 | 16328 ft | 409 kts | 311° |
| 2026-05-06 01:56 | 18.41605 | 42.35068 | 16687 ft | 412 kts | 311° |
| 2026-05-06 01:56 | 18.43508 | 42.32800 | 17022 ft | 414 kts | 311° |
| 2026-05-06 01:56 | 18.45423 | 42.30518 | 17343 ft | 417 kts | 311° |
| 2026-05-06 01:57 | 18.47346 | 42.28223 | 17653 ft | 419 kts | 311° |
| 2026-05-06 01:57 | 18.49279 | 42.25915 | 17938 ft | 421 kts | 311° |
| 2026-05-06 01:57 | 18.51220 | 42.23594 | 18210 ft | 423 kts | 311° |
| 2026-05-06 01:57 | 18.53170 | 42.21260 | 18482 ft | 425 kts | 311° |
| 2026-05-06 01:58 | 18.55104 | 42.18947 | 18739 ft | 427 kts | 311° |
| 2026-05-06 01:58 | 18.57074 | 42.16592 | 18984 ft | 429 kts | 311° |
| 2026-05-06 01:58 | 18.59052 | 42.14227 | 19217 ft | 431 kts | 311° |
| 2026-05-06 01:58 | 18.61033 | 42.11858 | 19440 ft | 433 kts | 311° |
| 2026-05-06 01:59 | 18.63028 | 42.09468 | 19658 ft | 434 kts | 311° |
| 2026-05-06 01:59 | 18.65026 | 42.07072 | 19861 ft | 436 kts | 311° |
| 2026-05-06 01:59 | 18.67033 | 42.04668 | 20056 ft | 437 kts | 311° |
| 2026-05-06 01:59 | 18.69044 | 42.02257 | 20246 ft | 438 kts | 311° |
| 2026-05-06 02:00 | 18.71059 | 41.99835 | 20430 ft | 440 kts | 311° |
| 2026-05-06 02:00 | 18.73077 | 41.97406 | 20600 ft | 441 kts | 311° |
| 2026-05-06 02:00 | 18.75056 | 41.94982 | 20762 ft | 442 kts | 309° |
| 2026-05-06 02:00 | 18.76982 | 41.92445 | 20925 ft | 444 kts | 307° |
| 2026-05-06 02:01 | 18.78839 | 41.89843 | 21072 ft | 445 kts | 306° |
| 2026-05-06 02:01 | 18.80663 | 41.87203 | 21215 ft | 446 kts | 306° |
| 2026-05-06 02:01 | 18.82487 | 41.84546 | 21354 ft | 447 kts | 306° |
| 2026-05-06 02:01 | 18.84320 | 41.81892 | 21495 ft | 448 kts | 306° |
| 2026-05-06 02:02 | 18.86173 | 41.79242 | 21627 ft | 449 kts | 306° |
| 2026-05-06 02:02 | 18.88045 | 41.76598 | 21754 ft | 450 kts | 306° |
| 2026-05-06 02:02 | 18.89904 | 41.73991 | 21878 ft | 451 kts | 307° |
| 2026-05-06 02:02 | 18.91796 | 41.71350 | 22003 ft | 451 kts | 307° |
| 2026-05-06 02:03 | 18.93692 | 41.68704 | 22129 ft | 452 kts | 307° |
| 2026-05-06 02:03 | 18.95586 | 41.66049 | 22254 ft | 453 kts | 306° |
| 2026-05-06 02:03 | 18.97473 | 41.63392 | 22378 ft | 453 kts | 306° |
| 2026-05-06 02:03 | 18.99364 | 41.60727 | 22503 ft | 453 kts | 306° |
| 2026-05-06 02:04 | 19.01253 | 41.58061 | 22629 ft | 454 kts | 306° |
| 2026-05-06 02:04 | 19.03143 | 41.55391 | 22754 ft | 454 kts | 306° |
| 2026-05-06 02:04 | 19.05034 | 41.52720 | 22878 ft | 454 kts | 306° |
| 2026-05-06 02:04 | 19.06901 | 41.50082 | 23001 ft | 454 kts | 306° |
| 2026-05-06 02:05 | 19.08790 | 41.47413 | 23126 ft | 454 kts | 306° |
| 2026-05-06 02:05 | 19.10682 | 41.44741 | 23251 ft | 454 kts | 306° |
| 2026-05-06 02:05 | 19.12572 | 41.42068 | 23376 ft | 454 kts | 306° |
| 2026-05-06 02:05 | 19.14462 | 41.39393 | 23501 ft | 454 kts | 306° |
| 2026-05-06 02:06 | 19.16352 | 41.36720 | 23626 ft | 454 kts | 306° |
| 2026-05-06 02:06 | 19.18241 | 41.34048 | 23751 ft | 454 kts | 306° |
| 2026-05-06 02:06 | 19.20127 | 41.31373 | 23876 ft | 453 kts | 306° |
| 2026-05-06 02:06 | 19.22011 | 41.28698 | 24001 ft | 453 kts | 306° |
| 2026-05-06 02:07 | 19.23892 | 41.26030 | 24125 ft | 453 kts | 306° |
| 2026-05-06 02:07 | 19.25754 | 41.23393 | 24248 ft | 453 kts | 306° |
| 2026-05-06 02:07 | 19.27642 | 41.20724 | 24373 ft | 453 kts | 306° |
| 2026-05-06 02:07 | 19.29529 | 41.18058 | 24498 ft | 452 kts | 306° |
| 2026-05-06 02:08 | 19.31413 | 41.15392 | 24623 ft | 452 kts | 306° |
| 2026-05-06 02:08 | 19.33295 | 41.12729 | 24748 ft | 451 kts | 306° |
| 2026-05-06 02:08 | 19.35173 | 41.10068 | 24873 ft | 451 kts | 306° |
| 2026-05-06 02:08 | 19.37047 | 41.07408 | 24998 ft | 450 kts | 306° |
| 2026-05-06 02:09 | 19.38283 | 41.05643 | 25081 ft | 450 kts | 306° |
| 2026-05-06 02:09 | 19.40725 | 41.02106 | 25246 ft | 449 kts | 306° |
| 2026-05-06 02:09 | 19.42555 | 40.99433 | 25370 ft | 448 kts | 306° |
| 2026-05-06 02:09 | 19.44379 | 40.96762 | 25495 ft | 447 kts | 306° |
| 2026-05-06 02:10 | 19.46199 | 40.94095 | 25620 ft | 446 kts | 305° |
| 2026-05-06 02:10 | 19.48017 | 40.91434 | 25745 ft | 445 kts | 306° |
| 2026-05-06 02:10 | 19.49218 | 40.89680 | 25828 ft | 445 kts | 306° |
| 2026-05-06 02:10 | 19.51032 | 40.87034 | 25974 ft | 443 kts | 306° |
| 2026-05-06 02:11 | 19.52850 | 40.84386 | 26011 ft | 445 kts | 306° |
| 2026-05-06 02:11 | 19.55268 | 40.80862 | 26009 ft | 448 kts | 306° |
| 2026-05-06 02:11 | 19.57103 | 40.78184 | 26009 ft | 450 kts | 306° |
| 2026-05-06 02:11 | 19.58944 | 40.75494 | 26009 ft | 452 kts | 306° |
| 2026-05-06 02:12 | 19.60168 | 40.73704 | 26009 ft | 453 kts | 306° |
| 2026-05-06 02:12 | 19.62020 | 40.70996 | 26009 ft | 454 kts | 306° |
| 2026-05-06 02:12 | 19.63880 | 40.68278 | 26009 ft | 456 kts | 306° |
| 2026-05-06 02:12 | 19.65746 | 40.65552 | 26009 ft | 457 kts | 306° |
| 2026-05-06 02:13 | 19.67613 | 40.62823 | 26009 ft | 459 kts | 306° |
| 2026-05-06 02:13 | 19.70103 | 40.59182 | 26009 ft | 461 kts | 306° |
| 2026-05-06 02:13 | 19.71987 | 40.56428 | 26009 ft | 462 kts | 306° |
| 2026-05-06 02:13 | 19.73877 | 40.53665 | 26009 ft | 463 kts | 306° |
| 2026-05-06 02:14 | 19.75768 | 40.50898 | 26009 ft | 465 kts | 306° |
| 2026-05-06 02:14 | 19.77025 | 40.49055 | 26009 ft | 465 kts | 306° |
| 2026-05-06 02:14 | 19.78924 | 40.46266 | 26009 ft | 467 kts | 305° |
| 2026-05-06 02:14 | 19.80826 | 40.43469 | 26009 ft | 468 kts | 305° |
| 2026-05-06 02:15 | 19.82733 | 40.40664 | 26009 ft | 469 kts | 305° |
| 2026-05-06 02:15 | 19.84644 | 40.37852 | 26009 ft | 470 kts | 305° |
| 2026-05-06 02:15 | 19.86561 | 40.35033 | 26009 ft | 471 kts | 305° |
| 2026-05-06 02:15 | 19.89103 | 40.31288 | 26009 ft | 473 kts | 305° |
| 2026-05-06 02:16 | 19.90404 | 40.29371 | 26009 ft | 473 kts | 305° |
| 2026-05-06 02:16 | 19.92309 | 40.26569 | 26009 ft | 474 kts | 305° |
| 2026-05-06 02:16 | 19.94243 | 40.23724 | 26009 ft | 475 kts | 306° |
| 2026-05-06 02:16 | 19.96176 | 40.20879 | 26009 ft | 476 kts | 305° |
| 2026-05-06 02:17 | 19.98115 | 40.18021 | 26009 ft | 477 kts | 305° |
| 2026-05-06 02:17 | 20.00055 | 40.15158 | 26009 ft | 478 kts | 305° |
| 2026-05-06 02:17 | 20.01998 | 40.12291 | 26009 ft | 478 kts | 305° |
| 2026-05-06 02:17 | 20.03943 | 40.09419 | 26009 ft | 479 kts | 305° |
| 2026-05-06 02:18 | 20.05890 | 40.06543 | 26009 ft | 479 kts | 305° |
| 2026-05-06 02:18 | 20.07837 | 40.03662 | 26009 ft | 480 kts | 305° |
| 2026-05-06 02:18 | 20.09785 | 40.00778 | 26009 ft | 480 kts | 305° |
| 2026-05-06 02:18 | 20.11710 | 39.97929 | 26009 ft | 481 kts | 305° |
| 2026-05-06 02:19 | 20.13661 | 39.95038 | 26009 ft | 481 kts | 305° |
| 2026-05-06 02:19 | 20.15613 | 39.92146 | 26009 ft | 481 kts | 305° |
| 2026-05-06 02:19 | 20.17568 | 39.89252 | 26009 ft | 481 kts | 305° |
| 2026-05-06 02:19 | 20.19521 | 39.86356 | 26009 ft | 482 kts | 305° |
| 2026-05-06 02:20 | 20.23438 | 39.80564 | 26008 ft | 482 kts | 307° |
| 2026-05-06 02:20 | 20.25678 | 39.77911 | 26009 ft | 482 kts | 316° |
| 2026-05-06 02:20 | 20.28301 | 39.75684 | 26009 ft | 483 kts | 326° |
| 2026-05-06 02:21 | 20.31231 | 39.73956 | 26009 ft | 483 kts | 336° |
| 2026-05-06 02:21 | 20.34301 | 39.72616 | 26010 ft | 483 kts | 338° |
| 2026-05-06 02:21 | 20.37422 | 39.71267 | 25467 ft | 484 kts | 338° |
| 2026-05-06 02:21 | 20.40566 | 39.69903 | 23583 ft | 495 kts | 337° |
| 2026-05-06 02:22 | 20.43808 | 39.68486 | 21740 ft | 509 kts | 337° |
| 2026-05-06 02:22 | 20.47065 | 39.67058 | 20874 ft | 500 kts | 337° |
| 2026-05-06 02:22 | 20.50242 | 39.65660 | 20067 ft | 489 kts | 337° |
| 2026-05-06 02:22 | 20.53360 | 39.64292 | 19196 ft | 481 kts | 337° |
| 2026-05-06 02:23 | 20.56430 | 39.62949 | 18329 ft | 473 kts | 337° |
| 2026-05-06 02:23 | 20.59415 | 39.61642 | 17488 ft | 466 kts | 337° |
| 2026-05-06 02:23 | 20.62395 | 39.60333 | 16656 ft | 460 kts | 337° |
| 2026-05-06 02:23 | 20.65327 | 39.59045 | 15846 ft | 453 kts | 337° |
| 2026-05-06 02:24 | 20.68232 | 39.57771 | 15032 ft | 447 kts | 337° |
| 2026-05-06 02:24 | 20.71084 | 39.56519 | 14221 ft | 441 kts | 337° |
| 2026-05-06 02:24 | 20.73904 | 39.55283 | 13412 ft | 435 kts | 337° |
| 2026-05-06 02:24 | 20.76686 | 39.54064 | 12505 ft | 430 kts | 337° |
| 2026-05-06 02:25 | 20.79509 | 39.53007 | 11585 ft | 427 kts | 345° |
| 2026-05-06 02:25 | 20.82360 | 39.52235 | 11046 ft | 414 kts | 345° |
| 2026-05-06 02:25 | 20.85051 | 39.51505 | 10868 ft | 394 kts | 345° |
| 2026-05-06 02:25 | 20.87632 | 39.50806 | 10780 ft | 373 kts | 345° |
| 2026-05-06 02:26 | 20.90082 | 39.50142 | 10695 ft | 354 kts | 345° |
| 2026-05-06 02:26 | 20.92415 | 39.49507 | 10559 ft | 339 kts | 345° |
| 2026-05-06 02:26 | 20.94658 | 39.48897 | 10412 ft | 326 kts | 345° |
| 2026-05-06 02:26 | 20.96810 | 39.48314 | 10270 ft | 314 kts | 345° |
| 2026-05-06 02:27 | 20.98887 | 39.47750 | 10134 ft | 302 kts | 345° |
| 2026-05-06 02:27 | 21.00919 | 39.47199 | 9734 ft | 301 kts | 345° |
| 2026-05-06 02:27 | 21.02945 | 39.46651 | 9341 ft | 299 kts | 345° |
| 2026-05-06 02:27 | 21.04930 | 39.46114 | 8964 ft | 297 kts | 345° |
| 2026-05-06 02:28 | 21.06926 | 39.45573 | 8588 ft | 294 kts | 345° |
| 2026-05-06 02:28 | 21.08902 | 39.45038 | 8215 ft | 291 kts | 345° |
| 2026-05-06 02:28 | 21.10858 | 39.44510 | 7846 ft | 288 kts | 345° |
| 2026-05-06 02:28 | 21.12789 | 39.43991 | 7483 ft | 285 kts | 345° |
| 2026-05-06 02:29 | 21.14704 | 39.43472 | 7121 ft | 282 kts | 345° |
| 2026-05-06 02:29 | 21.16593 | 39.42959 | 6764 ft | 278 kts | 345° |
| 2026-05-06 02:29 | 21.18453 | 39.42454 | 6413 ft | 275 kts | 345° |
| 2026-05-06 02:29 | 21.20294 | 39.41956 | 6067 ft | 271 kts | 345° |
| 2026-05-06 02:30 | 21.22070 | 39.41341 | 5725 ft | 266 kts | 332° |
| 2026-05-06 02:30 | 21.23498 | 39.40174 | 5390 ft | 261 kts | 311° |
| 2026-05-06 02:30 | 21.24655 | 39.38696 | 5055 ft | 257 kts | 309° |
| 2026-05-06 02:30 | 21.25791 | 39.37235 | 4726 ft | 253 kts | 309° |
| 2026-05-06 02:31 | 21.26913 | 39.35796 | 4401 ft | 250 kts | 309° |
| 2026-05-06 02:31 | 21.28016 | 39.34382 | 4175 ft | 242 kts | 309° |
| 2026-05-06 02:31 | 21.29067 | 39.33038 | 4145 ft | 227 kts | 309° |
| 2026-05-06 02:31 | 21.30063 | 39.31765 | 4040 ft | 220 kts | 309° |
| 2026-05-06 02:32 | 21.31097 | 39.30570 | 3888 ft | 218 kts | 320° |
| 2026-05-06 02:32 | 21.32404 | 39.29753 | 3738 ft | 218 kts | 339° |
| 2026-05-06 02:32 | 21.33833 | 39.29200 | 3589 ft | 218 kts | 339° |
| 2026-05-06 02:32 | 21.35219 | 39.28656 | 3443 ft | 213 kts | 339° |
| 2026-05-06 02:33 | 21.36589 | 39.28114 | 3292 ft | 207 kts | 339° |
| 2026-05-06 02:33 | 21.37478 | 39.27764 | 3224 ft | 203 kts | 339° |
| 2026-05-06 02:34 | 21.41781 | 39.26073 | 3150 ft | 196 kts | 339° |
| 2026-05-06 02:34 | 21.43060 | 39.25570 | 3151 ft | 196 kts | 339° |
| 2026-05-06 02:34 | 21.44322 | 39.25075 | 3151 ft | 196 kts | 339° |
| 2026-05-06 02:34 | 21.45598 | 39.24573 | 3151 ft | 196 kts | 339° |
| 2026-05-06 02:35 | 21.46876 | 39.24070 | 3151 ft | 196 kts | 339° |
| 2026-05-06 02:35 | 21.48153 | 39.23568 | 3151 ft | 196 kts | 339° |
| 2026-05-06 02:35 | 21.49431 | 39.23065 | 3151 ft | 196 kts | 339° |
| 2026-05-06 02:35 | 21.50711 | 39.22562 | 3123 ft | 196 kts | 339° |
| 2026-05-06 02:36 | 21.51993 | 39.22057 | 2938 ft | 196 kts | 339° |
| 2026-05-06 02:36 | 21.53277 | 39.21552 | 2699 ft | 197 kts | 339° |
| 2026-05-06 02:36 | 21.54534 | 39.21058 | 2462 ft | 186 kts | 339° |
| 2026-05-06 02:36 | 21.55709 | 39.20595 | 2217 ft | 173 kts | 339° |
| 2026-05-06 02:37 | 21.56801 | 39.20165 | 1984 ft | 162 kts | 339° |
| 2026-05-06 02:37 | 21.57800 | 39.19772 | 1785 ft | 148 kts | 339° |
| 2026-05-06 02:37 | 21.58744 | 39.19400 | 1590 ft | 142 kts | 339° |
| 2026-05-06 02:37 | 21.59664 | 39.19037 | 1403 ft | 140 kts | 339° |
| 2026-05-06 02:38 | 21.60572 | 39.18679 | 1219 ft | 139 kts | 339° |
| 2026-05-06 02:38 | 21.61477 | 39.18322 | 1036 ft | 138 kts | 339° |
| 2026-05-06 02:38 | 21.62375 | 39.17970 | 854 ft | 137 kts | 339° |
| 2026-05-06 02:38 | 21.63273 | 39.17624 | 680 ft | 137 kts | 339° |
| 2026-05-06 02:39 | 21.64162 | 39.17261 | 522 ft | 137 kts | 337° |
| 2026-05-06 02:39 | 21.65042 | 39.16915 | 318 ft | 136 kts | 340° |
| 2026-05-06 02:39 | 21.65931 | 39.16567 | 122 ft | 136 kts | 337° |
| 2026-05-06 02:39 | 21.66782 | 39.16225 | 40 ft | 117 kts | 339° |
| 2026-05-06 02:40 | 21.67386 | 39.15992 | 36 ft | 67 kts | 340° |
| 2026-05-06 02:40 | 21.67699 | 39.15868 | 38 ft | 40 kts | 340° |
| 2026-05-06 02:40 | 21.67953 | 39.15767 | 36 ft | 38 kts | 340° |
| 2026-05-06 02:40 | 21.68145 | 39.15729 | 36 ft | 26 kts | 6° |
| 2026-05-06 02:41 | 21.68312 | 39.15738 | 31 ft | 11 kts | 7° |
| 2026-05-06 02:41 | 21.68344 | 39.15765 | 30 ft | 5 kts | 82° |
| 2026-05-06 02:41 | 21.68313 | 39.15817 | 31 ft | 13 kts | 144° |
| 2026-05-06 02:41 | 21.68237 | 39.15849 | 33 ft | 11 kts | 159° |
| 2026-05-06 02:42 | 21.68135 | 39.15890 | 34 ft | 22 kts | 161° |
| 2026-05-06 02:42 | 21.67954 | 39.15962 | 36 ft | 30 kts | 160° |
| 2026-05-06 02:42 | 21.67751 | 39.16042 | 33 ft | 33 kts | 160° |
| 2026-05-06 02:42 | 21.67530 | 39.16131 | 31 ft | 35 kts | 160° |
| 2026-05-06 02:43 | 21.67301 | 39.16220 | 31 ft | 35 kts | 160° |
| 2026-05-06 02:43 | 21.67069 | 39.16311 | 32 ft | 36 kts | 160° |
| 2026-05-06 02:43 | 21.66837 | 39.16401 | 32 ft | 36 kts | 160° |
| 2026-05-06 02:43 | 21.66600 | 39.16495 | 32 ft | 37 kts | 160° |
| 2026-05-06 02:44 | 21.66379 | 39.16583 | 31 ft | 24 kts | 160° |
| 2026-05-06 02:44 | 21.66323 | 39.16693 | 31 ft | 21 kts | 69° |
| 2026-05-06 02:44 | 21.66379 | 39.16865 | 31 ft | 26 kts | 70° |
| 2026-05-06 02:44 | 21.66425 | 39.17008 | 31 ft | 8 kts | 98° |
| 2026-05-06 02:45 | 21.66380 | 39.17017 | 31 ft | 6 kts | 186° |
| 2026-05-06 02:45 | 21.66363 | 39.17047 | 31 ft | 4 kts | 88° |
| 2026-05-06 02:45 | 21.66362 | 39.17076 | 31 ft | 4 kts | 112° |
| 2026-05-06 02:45 | 21.66352 | 39.17098 | 31 ft | 3 kts | 118° |
| 2026-05-06 02:46 | 21.66349 | 39.17104 | 31 ft | 0 kts | 119° |